createdAt,value
2022-10-04T00:00:46.533Z,3.50
2022-10-04T00:01:47.520Z,2.80
2022-10-04T00:02:47.979Z,4.60
2022-10-04T00:03:48.855Z,3.80
2022-10-04T00:04:49.720Z,2.90
2022-10-04T00:05:50.599Z,3.30
2022-10-04T00:06:51.481Z,3.50
2022-10-04T00:07:52.364Z,3.30
2022-10-04T00:08:53.238Z,4.60
2022-10-04T00:09:54.154Z,4.80
2022-10-04T00:10:55.021Z,7.20
2022-10-04T00:11:55.913Z,4.70
2022-10-04T00:12:56.786Z,3.70
2022-10-04T00:13:57.667Z,11.20
2022-10-04T00:14:58.542Z,3.60
2022-10-04T00:15:59.474Z,6.50
2022-10-04T00:17:00.325Z,18.60
2022-10-04T00:18:01.209Z,22.10
2022-10-04T00:19:02.114Z,11.60
2022-10-04T00:20:02.972Z,3.80
2022-10-04T00:21:03.847Z,3.50
2022-10-04T00:22:04.738Z,19.70
2022-10-04T00:23:05.623Z,18.80
2022-10-04T00:24:06.508Z,27.90
2022-10-04T00:25:07.388Z,4.20
2022-10-04T00:26:08.270Z,2.80
2022-10-04T00:27:09.153Z,3.10
2022-10-04T00:28:10.132Z,4.30
2022-10-04T00:29:10.967Z,18.40
2022-10-04T00:30:11.848Z,20.30
2022-10-04T00:31:12.782Z,5.80
2022-10-04T00:32:13.633Z,3.20
2022-10-04T00:33:14.505Z,3.60
2022-10-04T00:34:15.405Z,3.00
2022-10-04T00:35:16.259Z,4.00
2022-10-04T00:36:17.143Z,3.30
2022-10-04T00:37:18.031Z,5.50
2022-10-04T00:38:18.910Z,3.30
2022-10-04T00:39:19.787Z,3.20
2022-10-04T00:40:20.662Z,2.90
2022-10-04T00:41:21.551Z,5.40
2022-10-04T00:42:22.424Z,16.40
2022-10-04T00:43:23.306Z,9.10
2022-10-04T00:44:24.180Z,17.90
2022-10-04T00:45:25.062Z,3.20
2022-10-04T00:46:25.992Z,4.90
2022-10-04T00:47:26.825Z,3.50
2022-10-04T00:48:31.218Z,3.30
2022-10-04T00:49:28.503Z,3.90
2022-10-04T00:50:29.355Z,3.30
2022-10-04T00:51:30.246Z,3.10
2022-10-04T00:52:31.132Z,3.70
2022-10-04T00:53:32.011Z,4.60
2022-10-04T00:54:32.889Z,4.20
2022-10-04T00:55:33.766Z,4.90
2022-10-04T00:56:34.651Z,5.30
2022-10-04T00:57:35.530Z,3.30
2022-10-04T00:58:36.403Z,4.60
2022-10-04T00:59:37.287Z,3.60
2022-10-04T01:00:38.160Z,4.00
2022-10-04T01:01:39.187Z,8.40
2022-10-04T01:02:39.683Z,7.00
2022-10-04T01:03:40.537Z,2.90
2022-10-04T01:04:41.429Z,4.00
2022-10-04T01:05:42.295Z,3.50
2022-10-04T01:06:43.173Z,2.50
2022-10-04T01:07:44.054Z,3.50
2022-10-04T01:08:44.926Z,4.10
2022-10-04T01:09:45.808Z,6.50
2022-10-04T01:10:46.680Z,6.10
2022-10-04T01:11:47.572Z,3.40
2022-10-04T01:12:48.455Z,3.30
2022-10-04T01:13:49.336Z,4.90
2022-10-04T01:14:50.210Z,3.30
2022-10-04T01:15:51.163Z,4.30
2022-10-04T01:16:52.014Z,5.90
2022-10-04T01:17:52.894Z,5.30
2022-10-04T01:18:53.769Z,3.00
2022-10-04T01:19:54.673Z,3.00
2022-10-04T01:20:55.534Z,4.70
2022-10-04T01:21:56.423Z,7.50
2022-10-04T01:22:57.300Z,26.70
2022-10-04T01:23:58.182Z,2.50
2022-10-04T01:24:59.062Z,5.70
2022-10-04T01:25:59.943Z,3.10
2022-10-04T01:27:00.836Z,3.20
2022-10-04T01:28:01.747Z,2.70
2022-10-04T01:29:02.585Z,4.00
2022-10-04T01:30:03.466Z,5.30
2022-10-04T01:31:04.414Z,4.90
2022-10-04T01:32:05.268Z,2.40
2022-10-04T01:33:06.143Z,4.90
2022-10-04T01:34:07.024Z,8.30
2022-10-04T01:35:07.918Z,10.20
2022-10-04T01:36:08.399Z,2.40
2022-10-04T01:37:09.272Z,8.20
2022-10-04T01:38:10.156Z,6.00
2022-10-04T01:39:11.028Z,2.60
2022-10-04T01:40:11.912Z,7.40
2022-10-04T01:41:12.805Z,7.50
2022-10-04T01:42:13.687Z,2.10
2022-10-04T01:43:14.570Z,2.80
2022-10-04T01:44:15.452Z,2.00
2022-10-04T01:45:16.325Z,2.40
2022-10-04T01:46:17.264Z,3.30
2022-10-04T01:47:18.134Z,2.40
2022-10-04T01:48:19.013Z,4.50
2022-10-04T01:49:19.885Z,2.60
2022-10-04T01:50:20.787Z,2.80
2022-10-04T01:51:21.659Z,2.40
2022-10-04T01:52:22.580Z,2.90
2022-10-04T01:53:23.424Z,2.60
2022-10-04T01:54:24.306Z,2.40
2022-10-04T01:55:25.189Z,7.50
2022-10-04T01:56:26.082Z,2.40
2022-10-04T01:57:26.953Z,1.80
2022-10-04T01:58:27.834Z,2.10
2022-10-04T01:59:28.708Z,4.40
2022-10-04T02:00:29.594Z,3.10
2022-10-04T02:01:30.573Z,2.10
2022-10-04T02:02:31.457Z,1.90
2022-10-04T02:03:32.414Z,2.30
2022-10-04T02:04:33.339Z,3.80
2022-10-04T02:05:34.198Z,3.20
2022-10-04T02:06:35.070Z,2.30
2022-10-04T02:07:35.944Z,2.10
2022-10-04T02:08:36.827Z,2.40
2022-10-04T02:09:37.701Z,1.50
2022-10-04T02:10:43.022Z,3.10
2022-10-04T02:11:40.675Z,1.60
2022-10-04T02:12:40.192Z,2.50
2022-10-04T02:13:41.065Z,3.10
2022-10-04T02:14:41.946Z,5.30
2022-10-04T02:15:42.908Z,2.00
2022-10-04T02:16:43.749Z,2.40
2022-10-04T02:17:44.616Z,3.90
2022-10-04T02:18:45.495Z,3.30
2022-10-04T02:19:46.369Z,2.10
2022-10-04T02:20:47.272Z,2.70
2022-10-04T02:21:48.133Z,2.00
2022-10-04T02:22:49.015Z,1.70
2022-10-04T02:23:49.898Z,4.00
2022-10-04T02:24:50.781Z,3.50
2022-10-04T02:25:51.654Z,3.00
2022-10-04T02:26:52.545Z,3.80
2022-10-04T02:27:53.468Z,1.70
2022-10-04T02:28:54.298Z,2.20
2022-10-04T02:29:55.183Z,1.70
2022-10-04T02:30:56.118Z,2.80
2022-10-04T02:31:56.958Z,1.60
2022-10-04T02:32:57.852Z,2.80
2022-10-04T02:33:58.720Z,5.90
2022-10-04T02:34:59.603Z,3.10
2022-10-04T02:36:00.495Z,1.80
2022-10-04T02:37:01.369Z,2.20
2022-10-04T02:38:02.243Z,2.60
2022-10-04T02:39:03.123Z,2.10
2022-10-04T02:40:03.997Z,1.70
2022-10-04T02:41:04.881Z,2.30
2022-10-04T02:42:05.763Z,4.60
2022-10-04T02:43:06.642Z,4.70
2022-10-04T02:44:07.527Z,1.70
2022-10-04T02:45:08.408Z,1.90
2022-10-04T02:46:09.353Z,1.90
2022-10-04T02:47:10.229Z,1.80
2022-10-04T02:48:11.096Z,1.90
2022-10-04T02:49:11.976Z,5.90
2022-10-04T02:50:12.852Z,4.10
2022-10-04T02:51:13.752Z,2.30
2022-10-04T02:52:14.615Z,3.90
2022-10-04T02:53:15.497Z,5.20
2022-10-04T02:54:16.379Z,2.70
2022-10-04T02:55:17.281Z,2.20
2022-10-04T02:56:18.185Z,2.50
2022-10-04T02:57:19.088Z,2.20
2022-10-04T02:58:19.962Z,4.20
2022-10-04T02:59:20.863Z,7.40
2022-10-04T03:00:21.765Z,2.60
2022-10-04T03:01:22.701Z,1.80
2022-10-04T03:02:29.092Z,3.60
2022-10-04T03:03:25.292Z,3.70
2022-10-04T03:04:25.165Z,1.60
2022-10-04T03:05:26.049Z,6.90
2022-10-04T03:06:26.949Z,3.30
2022-10-04T03:07:27.813Z,4.40
2022-10-04T03:08:28.686Z,4.20
2022-10-04T03:09:30.134Z,2.20
2022-10-04T03:10:30.062Z,7.40
2022-10-04T03:11:30.952Z,2.50
2022-10-04T03:12:31.844Z,1.50
2022-10-04T03:13:32.726Z,3.90
2022-10-04T03:14:33.600Z,4.20
2022-10-04T03:15:34.485Z,2.00
2022-10-04T03:16:35.435Z,3.90
2022-10-04T03:17:36.325Z,8.20
2022-10-04T03:18:37.198Z,1.90
2022-10-04T03:19:38.080Z,1.80
2022-10-04T03:20:38.963Z,3.10
2022-10-04T03:21:40.287Z,2.30
2022-10-04T03:22:44.860Z,2.40
2022-10-04T03:23:42.595Z,2.00
2022-10-04T03:24:42.457Z,3.50
2022-10-04T03:25:43.342Z,2.00
2022-10-04T03:26:44.235Z,4.80
2022-10-04T03:27:45.115Z,3.40
2022-10-04T03:28:45.986Z,1.90
2022-10-04T03:29:46.869Z,2.30
2022-10-04T03:30:47.741Z,1.80
2022-10-04T03:31:48.701Z,5.20
2022-10-04T03:32:49.535Z,6.40
2022-10-04T03:33:50.417Z,11.60
2022-10-04T03:34:51.292Z,4.90
2022-10-04T03:35:52.173Z,2.00
2022-10-04T03:36:53.085Z,2.10
2022-10-04T03:37:53.947Z,3.60
2022-10-04T03:38:54.819Z,4.70
2022-10-04T03:39:55.702Z,3.20
2022-10-04T03:40:56.575Z,3.80
2022-10-04T03:41:57.467Z,1.70
2022-10-04T03:42:58.340Z,2.00
2022-10-04T03:44:02.739Z,4.90
2022-10-04T03:45:00.998Z,19.70
2022-10-04T03:46:00.926Z,69.40
2022-10-04T03:47:01.774Z,68.80
2022-10-04T03:48:02.655Z,30.80
2022-10-04T03:49:03.531Z,64.90
2022-10-04T03:50:04.411Z,11.80
2022-10-04T03:51:05.284Z,49.40
2022-10-04T03:52:06.195Z,70.70
2022-10-04T03:53:07.054Z,91.90
2022-10-04T03:54:07.932Z,71.70
2022-10-04T03:55:08.805Z,2.30
2022-10-04T03:56:09.686Z,8.30
2022-10-04T03:57:10.570Z,8.10
2022-10-04T03:58:11.452Z,88.30
2022-10-04T03:59:12.327Z,67.70
2022-10-04T04:00:13.208Z,128.30
2022-10-04T04:01:14.146Z,153.80
2022-10-04T04:02:15.065Z,111.20
2022-10-04T04:03:15.936Z,132.20
2022-10-04T04:04:16.819Z,61.40
2022-10-04T04:05:17.701Z,122.60
2022-10-04T04:06:18.594Z,53.30
2022-10-04T04:07:19.486Z,137.50
2022-10-04T04:08:20.349Z,124.70
2022-10-04T04:09:21.231Z,141.00
2022-10-04T04:10:22.116Z,181.40
2022-10-04T04:11:22.997Z,99.20
2022-10-04T04:12:23.879Z,220.80
2022-10-04T04:13:24.752Z,152.80
2022-10-04T04:14:25.633Z,45.80
2022-10-04T04:15:26.518Z,101.30
2022-10-04T04:16:27.447Z,138.60
2022-10-04T04:17:28.291Z,66.50
2022-10-04T04:18:29.193Z,12.40
2022-10-04T04:19:30.069Z,2.00
2022-10-04T04:20:30.976Z,2.70
2022-10-04T04:21:31.866Z,3.30
2022-10-04T04:22:32.793Z,4.60
2022-10-04T04:23:33.677Z,4.70
2022-10-04T04:24:34.557Z,1.80
2022-10-04T04:25:35.430Z,22.70
2022-10-04T04:26:36.321Z,3.20
2022-10-04T04:27:37.195Z,2.00
2022-10-04T04:28:38.140Z,2.00
2022-10-04T04:29:38.990Z,1.70
2022-10-04T04:30:39.870Z,4.20
2022-10-04T04:31:41.125Z,3.50
2022-10-04T04:32:41.629Z,4.50
2022-10-04T04:33:42.499Z,1.30
2022-10-04T04:34:43.384Z,1.90
2022-10-04T04:35:44.264Z,2.00
2022-10-04T04:36:45.159Z,10.50
2022-10-04T04:37:46.059Z,2.20
2022-10-04T04:38:46.920Z,2.20
2022-10-04T04:39:47.795Z,3.20
2022-10-04T04:40:48.679Z,3.10
2022-10-04T04:41:50.746Z,4.50
2022-10-04T04:42:50.312Z,3.70
2022-10-04T04:43:51.191Z,4.20
2022-10-04T04:44:52.070Z,5.00
2022-10-04T04:46:08.905Z,3.40
2022-10-04T04:46:54.815Z,1.70
2022-10-04T04:47:54.671Z,4.50
2022-10-04T04:48:55.574Z,4.70
2022-10-04T04:49:56.472Z,5.20
2022-10-04T04:50:57.374Z,2.00
2022-10-04T04:51:58.277Z,3.20
2022-10-04T04:52:59.197Z,1.40
2022-10-04T04:54:00.054Z,3.60
2022-10-04T04:55:00.952Z,4.50
2022-10-04T04:56:04.646Z,11.30
2022-10-04T04:57:02.372Z,3.90
2022-10-04T04:58:03.254Z,7.80
2022-10-04T04:59:04.128Z,6.80
2022-10-04T05:00:04.974Z,3.30
2022-10-04T05:01:05.872Z,4.60
2022-10-04T05:02:06.775Z,1.90
2022-10-04T05:03:07.565Z,2.50
2022-10-04T05:04:08.404Z,20.70
2022-10-04T05:05:09.284Z,7.90
2022-10-04T05:06:10.155Z,2.30
2022-10-04T05:07:10.993Z,1.40
2022-10-04T05:08:11.840Z,3.50
2022-10-04T05:09:12.696Z,2.20
2022-10-04T05:10:13.533Z,6.10
2022-10-04T05:11:14.373Z,5.30
2022-10-04T05:12:15.201Z,6.10
2022-10-04T05:13:16.021Z,7.50
2022-10-04T05:14:16.850Z,7.30
2022-10-04T05:15:19.532Z,3.70
2022-10-04T05:16:18.520Z,2.00
2022-10-04T05:17:19.328Z,7.90
2022-10-04T05:18:20.154Z,1.60
2022-10-04T05:19:20.984Z,1.80
2022-10-04T05:20:21.814Z,1.70
2022-10-04T05:21:22.642Z,3.50
2022-10-04T05:22:23.472Z,7.50
2022-10-04T05:23:24.317Z,6.00
2022-10-04T05:24:25.126Z,10.90
2022-10-04T05:25:25.966Z,8.90
2022-10-04T05:26:26.804Z,6.90
2022-10-04T05:27:27.633Z,4.50
2022-10-04T05:28:28.553Z,12.70
2022-10-04T05:29:29.371Z,12.90
2022-10-04T05:30:30.201Z,9.10
2022-10-04T05:31:31.061Z,3.90
2022-10-04T05:32:31.859Z,14.30
2022-10-04T05:33:33.936Z,4.60
2022-10-04T05:34:33.284Z,6.00
2022-10-04T05:35:34.115Z,3.80
2022-10-04T05:36:34.954Z,6.00
2022-10-04T05:37:35.781Z,7.00
2022-10-04T05:38:36.630Z,3.50
2022-10-04T05:39:37.429Z,4.00
2022-10-04T05:40:38.257Z,2.30
2022-10-04T05:41:39.086Z,2.60
2022-10-04T05:42:39.915Z,13.70
2022-10-04T05:43:40.743Z,8.90
2022-10-04T05:44:41.581Z,7.30
2022-10-04T05:45:42.448Z,2.70
2022-10-04T05:46:44.159Z,2.50
2022-10-04T05:47:43.989Z,4.00
2022-10-04T05:48:44.817Z,5.80
2022-10-04T05:49:45.638Z,14.30
2022-10-04T05:50:46.466Z,6.90
2022-10-04T05:51:47.303Z,5.10
2022-10-04T05:52:48.133Z,10.10
2022-10-04T05:53:48.969Z,9.40
2022-10-04T05:54:49.778Z,4.70
2022-10-04T05:55:50.610Z,4.10
2022-10-04T05:56:51.447Z,4.30
2022-10-04T05:57:52.280Z,11.20
2022-10-04T05:58:53.103Z,14.90
2022-10-04T05:59:53.919Z,105.70
2022-10-04T06:00:54.786Z,74.70
2022-10-04T06:01:55.680Z,50.30
2022-10-04T06:02:56.593Z,12.20
2022-10-04T06:03:57.362Z,6.30
2022-10-04T06:04:58.193Z,141.60
2022-10-04T06:05:59.047Z,81.60
2022-10-04T06:06:59.865Z,17.50
2022-10-04T06:08:00.692Z,2.40
2022-10-04T06:09:01.543Z,1.00
2022-10-04T06:10:02.346Z,2.10
2022-10-04T06:11:03.170Z,1.90
2022-10-04T06:12:04.000Z,1.80
2022-10-04T06:13:04.830Z,2.20
2022-10-04T06:14:05.659Z,3.20
2022-10-04T06:15:06.488Z,5.00
2022-10-04T06:16:07.316Z,5.00
2022-10-04T06:17:08.253Z,5.60
2022-10-04T06:18:09.075Z,5.00
2022-10-04T06:19:09.902Z,7.50
2022-10-04T06:20:10.724Z,3.40
2022-10-04T06:21:11.553Z,5.30
2022-10-04T06:22:12.383Z,2.50
2022-10-04T06:23:13.212Z,2.20
2022-10-04T06:24:14.050Z,1.60
2022-10-04T06:25:14.859Z,2.50
2022-10-04T06:26:15.687Z,2.30
2022-10-04T06:27:16.517Z,6.80
2022-10-04T06:28:17.422Z,55.70
2022-10-04T06:29:18.217Z,43.20
2022-10-04T06:30:19.038Z,4.20
2022-10-04T06:31:19.949Z,3.20
2022-10-04T06:32:20.734Z,5.40
2022-10-04T06:33:21.564Z,4.40
2022-10-04T06:34:22.385Z,2.60
2022-10-04T06:35:23.215Z,12.20
2022-10-04T06:36:24.043Z,77.10
2022-10-04T06:37:24.873Z,120.20
2022-10-04T06:38:25.691Z,25.90
2022-10-04T06:39:26.557Z,0.90
2022-10-04T06:40:27.341Z,1.60
2022-10-04T06:41:28.180Z,2.50
2022-10-04T06:42:29.004Z,5.90
2022-10-04T06:43:29.832Z,8.90
2022-10-04T06:44:30.661Z,13.20
2022-10-04T06:45:31.490Z,3.70
2022-10-04T06:46:32.378Z,6.20
2022-10-04T06:47:33.191Z,4.30
2022-10-04T06:48:34.019Z,2.50
2022-10-04T06:49:34.847Z,2.60
2022-10-04T06:50:35.678Z,3.10
2022-10-04T06:51:36.518Z,1.50
2022-10-04T06:52:37.337Z,3.30
2022-10-04T06:53:38.187Z,1.40
2022-10-04T06:54:39.040Z,1.30
2022-10-04T06:55:39.850Z,1.30
2022-10-04T06:56:40.686Z,1.20
2022-10-04T06:57:41.516Z,1.00
2022-10-04T06:58:42.345Z,0.70
2022-10-04T06:59:43.175Z,2.70
2022-10-04T07:00:44.005Z,1.70
2022-10-04T07:01:45.244Z,20.80
2022-10-04T07:02:45.759Z,0.70
2022-10-04T07:03:51.234Z,1.50
2022-10-04T07:05:07.554Z,1.90
2022-10-04T07:05:48.989Z,1.50
2022-10-04T07:06:48.815Z,1.00
2022-10-04T07:07:49.643Z,1.60
2022-10-04T07:08:50.465Z,1.40
2022-10-04T07:09:51.322Z,1.40
2022-10-04T07:10:52.134Z,1.20
2022-10-04T07:11:53.008Z,1.40
2022-10-04T07:12:53.827Z,1.50
2022-10-04T07:13:54.657Z,2.30
2022-10-04T07:14:55.487Z,1.10
2022-10-04T07:15:56.358Z,1.80
2022-10-04T07:16:57.146Z,1.30
2022-10-04T07:17:57.977Z,1.60
2022-10-04T07:18:58.811Z,2.10
2022-10-04T07:19:59.654Z,5.70
2022-10-04T07:21:00.493Z,1.50
2022-10-04T07:22:01.331Z,1.60
2022-10-04T07:23:02.152Z,1.50
2022-10-04T07:24:02.987Z,2.10
2022-10-04T07:25:03.957Z,1.20
2022-10-04T07:26:04.710Z,1.80
2022-10-04T07:27:05.550Z,2.20
2022-10-04T07:28:06.449Z,1.50
2022-10-04T07:29:07.226Z,1.00
2022-10-04T07:30:08.055Z,1.10
2022-10-04T07:31:09.003Z,2.20
2022-10-04T07:32:09.786Z,3.80
2022-10-04T07:33:10.605Z,2.20
2022-10-04T07:34:11.456Z,1.20
2022-10-04T07:35:12.286Z,1.70
2022-10-04T07:36:13.115Z,1.60
2022-10-04T07:37:13.953Z,1.60
2022-10-04T07:38:14.781Z,1.00
2022-10-04T07:39:15.601Z,1.00
2022-10-04T07:40:16.453Z,1.00
2022-10-04T07:41:17.261Z,0.90
2022-10-04T07:42:18.099Z,1.20
2022-10-04T07:43:18.930Z,3.40
2022-10-04T07:44:19.778Z,3.10
2022-10-04T07:45:20.611Z,2.10
2022-10-04T07:46:21.521Z,2.40
2022-10-04T07:47:22.332Z,1.50
2022-10-04T07:48:23.163Z,2.00
2022-10-04T07:49:23.979Z,1.20
2022-10-04T07:50:24.808Z,3.20
2022-10-04T07:51:25.630Z,3.50
2022-10-04T07:52:26.468Z,2.10
2022-10-04T07:53:27.286Z,3.50
2022-10-04T07:54:28.120Z,3.00
2022-10-04T07:55:28.961Z,2.80
2022-10-04T07:56:29.762Z,1.60
2022-10-04T07:57:30.592Z,4.30
2022-10-04T07:58:31.420Z,2.60
2022-10-04T07:59:32.257Z,1.70
2022-10-04T08:00:33.077Z,1.10
2022-10-04T08:01:33.959Z,0.80
2022-10-04T08:02:34.893Z,1.10
2022-10-04T08:03:35.835Z,0.70
2022-10-04T08:04:36.665Z,1.40
2022-10-04T08:05:37.484Z,0.90
2022-10-04T08:06:38.313Z,3.70
2022-10-04T08:07:39.153Z,0.80
2022-10-04T08:08:39.983Z,1.60
2022-10-04T08:09:40.811Z,2.20
2022-10-04T08:10:41.658Z,1.00
2022-10-04T08:11:42.731Z,1.50
2022-10-04T08:12:43.132Z,1.20
2022-10-04T08:13:43.936Z,1.50
2022-10-04T08:14:44.768Z,1.50
2022-10-04T08:15:45.639Z,0.80
2022-10-04T08:16:46.718Z,1.20
2022-10-04T08:17:47.071Z,1.10
2022-10-04T08:18:47.901Z,1.80
2022-10-04T08:19:48.735Z,1.50
2022-10-04T08:20:49.560Z,1.90
2022-10-04T08:21:50.389Z,1.40
2022-10-04T08:22:51.229Z,1.40
2022-10-04T08:23:52.049Z,0.90
2022-10-04T08:24:53.732Z,1.30
2022-10-04T08:25:53.598Z,1.00
2022-10-04T08:26:54.387Z,2.00
2022-10-04T08:27:55.275Z,1.30
2022-10-04T08:28:56.044Z,3.20
2022-10-04T08:29:56.897Z,0.70
2022-10-04T08:30:57.786Z,1.70
2022-10-04T08:32:02.864Z,2.20
2022-10-04T08:33:00.313Z,1.80
2022-10-04T08:34:00.142Z,1.50
2022-10-04T08:35:00.969Z,2.10
2022-10-04T08:36:01.797Z,1.20
2022-10-04T08:37:02.633Z,1.30
2022-10-04T08:38:03.469Z,1.20
2022-10-04T08:39:04.498Z,2.30
2022-10-04T08:40:08.621Z,1.20
2022-10-04T08:41:07.016Z,1.60
2022-10-04T08:42:06.812Z,2.00
2022-10-04T08:43:07.650Z,1.10
2022-10-04T08:44:08.480Z,1.20
2022-10-04T08:45:09.307Z,1.50
2022-10-04T08:46:10.229Z,1.40
2022-10-04T08:47:10.994Z,1.40
2022-10-04T08:48:11.837Z,1.30
2022-10-04T08:49:12.681Z,1.60
2022-10-04T08:50:13.506Z,1.40
2022-10-04T08:51:14.328Z,2.40
2022-10-04T08:52:15.151Z,1.50
2022-10-04T08:53:15.991Z,2.20
2022-10-04T08:54:16.820Z,2.40
2022-10-04T08:55:17.648Z,1.60
2022-10-04T08:56:18.499Z,5.40
2022-10-04T08:57:19.306Z,1.40
2022-10-04T08:58:20.135Z,2.30
2022-10-04T08:59:20.975Z,1.70
2022-10-04T09:00:21.797Z,1.50
2022-10-04T09:01:22.706Z,1.20
2022-10-04T09:02:23.529Z,2.20
2022-10-04T09:03:25.027Z,1.90
2022-10-04T09:04:25.314Z,1.70
2022-10-04T09:05:26.144Z,1.50
2022-10-04T09:06:26.961Z,3.50
2022-10-04T09:07:27.791Z,1.40
2022-10-04T09:08:28.621Z,2.70
2022-10-04T09:09:29.450Z,2.20
2022-10-04T09:10:30.271Z,1.40
2022-10-04T09:11:31.116Z,2.40
2022-10-04T09:12:31.917Z,1.30
2022-10-04T09:13:32.760Z,1.20
2022-10-04T09:14:33.577Z,1.90
2022-10-04T09:15:34.485Z,1.40
2022-10-04T09:16:35.263Z,1.40
2022-10-04T09:17:36.094Z,1.50
2022-10-04T09:18:36.933Z,1.60
2022-10-04T09:19:37.765Z,1.60
2022-10-04T09:20:39.593Z,2.20
2022-10-04T09:21:39.175Z,1.30
2022-10-04T09:22:40.007Z,1.20
2022-10-04T09:23:40.839Z,2.00
2022-10-04T09:24:41.671Z,2.90
2022-10-04T09:25:42.488Z,1.40
2022-10-04T09:26:43.623Z,1.10
2022-10-04T09:27:55.035Z,2.00
2022-10-04T09:28:45.754Z,0.90
2022-10-04T09:29:45.584Z,1.70
2022-10-04T09:30:46.465Z,2.30
2022-10-04T09:31:47.242Z,2.20
2022-10-04T09:32:48.069Z,1.60
2022-10-04T09:33:48.914Z,1.80
2022-10-04T09:34:49.761Z,1.20
2022-10-04T09:35:50.593Z,1.90
2022-10-04T09:36:51.428Z,1.80
2022-10-04T09:37:52.253Z,1.10
2022-10-04T09:39:11.442Z,1.90
2022-10-04T09:39:54.808Z,1.50
2022-10-04T09:40:54.638Z,3.20
2022-10-04T09:41:55.532Z,1.70
2022-10-04T09:42:56.289Z,2.40
2022-10-04T09:43:57.127Z,1.30
2022-10-04T09:44:57.958Z,1.40
2022-10-04T09:45:58.795Z,2.10
2022-10-04T09:46:59.675Z,1.60
2022-10-04T09:48:00.454Z,1.20
2022-10-04T09:49:01.292Z,1.90
2022-10-04T09:50:02.113Z,4.50
2022-10-04T09:51:02.940Z,2.30
2022-10-04T09:52:03.758Z,1.70
2022-10-04T09:53:04.609Z,1.40
2022-10-04T09:54:05.462Z,1.50
2022-10-04T09:55:06.288Z,1.80
2022-10-04T09:56:07.109Z,1.70
2022-10-04T09:57:07.965Z,4.10
2022-10-04T09:58:08.757Z,1.30
2022-10-04T09:59:09.599Z,1.90
2022-10-04T10:00:10.425Z,1.50
2022-10-04T10:01:11.265Z,1.20
2022-10-04T10:02:12.078Z,0.70
2022-10-04T10:03:15.827Z,2.00
2022-10-04T10:04:13.436Z,2.20
2022-10-04T10:05:14.266Z,1.30
2022-10-04T10:06:15.096Z,1.20
2022-10-04T10:07:15.927Z,2.20
2022-10-04T10:08:16.758Z,1.40
2022-10-04T10:09:17.596Z,1.10
2022-10-04T10:10:18.419Z,1.30
2022-10-04T10:11:19.246Z,1.30
2022-10-04T10:12:20.085Z,1.70
2022-10-04T10:13:20.894Z,2.80
2022-10-04T10:14:21.736Z,1.50
2022-10-04T10:15:22.555Z,2.50
2022-10-04T10:16:23.454Z,6.70
2022-10-04T10:17:24.225Z,1.30
2022-10-04T10:18:25.045Z,0.90
2022-10-04T10:19:28.340Z,1.30
2022-10-04T10:20:26.796Z,1.70
2022-10-04T10:21:27.625Z,3.60
2022-10-04T10:22:28.454Z,1.60
2022-10-04T10:23:29.281Z,2.30
2022-10-04T10:24:30.126Z,2.10
2022-10-04T10:25:30.951Z,2.10
2022-10-04T10:26:31.772Z,1.30
2022-10-04T10:27:32.627Z,1.00
2022-10-04T10:28:33.569Z,3.30
2022-10-04T10:29:34.399Z,1.40
2022-10-04T10:30:35.238Z,0.80
2022-10-04T10:31:36.173Z,1.20
2022-10-04T10:32:36.938Z,2.40
2022-10-04T10:33:37.766Z,1.60
2022-10-04T10:34:38.613Z,1.00
2022-10-04T10:35:39.441Z,1.20
2022-10-04T10:36:40.264Z,1.90
2022-10-04T10:37:41.091Z,0.90
2022-10-04T10:38:41.922Z,2.80
2022-10-04T10:39:42.763Z,1.50
2022-10-04T10:40:43.595Z,0.80
2022-10-04T10:41:44.433Z,2.10
2022-10-04T10:42:45.260Z,1.50
2022-10-04T10:43:46.067Z,3.00
2022-10-04T10:44:46.900Z,2.20
2022-10-04T10:45:47.727Z,3.10
2022-10-04T10:46:48.987Z,4.00
2022-10-04T10:47:49.067Z,1.60
2022-10-04T10:48:49.896Z,1.90
2022-10-04T10:49:50.736Z,1.80
2022-10-04T10:50:51.569Z,1.60
2022-10-04T10:51:52.398Z,2.30
2022-10-04T10:52:53.220Z,1.10
2022-10-04T10:53:54.046Z,1.30
2022-10-04T10:54:54.883Z,1.40
2022-10-04T10:55:55.708Z,1.20
2022-10-04T10:56:56.529Z,2.10
2022-10-04T10:57:57.395Z,2.00
2022-10-04T10:58:58.196Z,1.40
2022-10-04T10:59:59.034Z,1.10
2022-10-04T11:00:59.858Z,1.10
2022-10-04T11:02:00.779Z,2.00
2022-10-04T11:03:12.680Z,3.40
2022-10-04T11:04:03.362Z,1.40
2022-10-04T11:05:03.161Z,1.20
2022-10-04T11:06:04.000Z,1.80
2022-10-04T11:07:04.829Z,1.30
2022-10-04T11:08:05.659Z,2.60
2022-10-04T11:09:06.478Z,2.00
2022-10-04T11:10:07.316Z,2.20
2022-10-04T11:11:08.137Z,2.00
2022-10-04T11:12:08.963Z,1.80
2022-10-04T11:13:09.805Z,1.40
2022-10-04T11:14:10.611Z,1.40
2022-10-04T11:15:11.473Z,1.30
2022-10-04T11:16:12.342Z,2.10
2022-10-04T11:17:13.153Z,2.20
2022-10-04T11:18:13.982Z,3.10
2022-10-04T11:19:14.801Z,1.80
2022-10-04T11:20:15.640Z,1.70
2022-10-04T11:21:16.468Z,9.30
2022-10-04T11:22:17.299Z,2.80
2022-10-04T11:23:18.116Z,1.80
2022-10-04T11:24:18.946Z,5.10
2022-10-04T11:25:19.786Z,2.90
2022-10-04T11:26:20.614Z,3.90
2022-10-04T11:27:21.434Z,1.60
2022-10-04T11:28:22.328Z,2.40
2022-10-04T11:29:23.124Z,2.60
2022-10-04T11:30:23.961Z,2.40
2022-10-04T11:31:24.811Z,2.60
2022-10-04T11:32:25.618Z,1.30
2022-10-04T11:33:26.438Z,2.20
2022-10-04T11:34:27.268Z,3.00
2022-10-04T11:35:28.108Z,3.10
2022-10-04T11:36:28.933Z,2.70
2022-10-04T11:37:29.764Z,1.60
2022-10-04T11:38:30.593Z,1.70
2022-10-04T11:39:31.414Z,1.80
2022-10-04T11:40:32.252Z,1.50
2022-10-04T11:41:33.081Z,1.50
2022-10-04T11:42:33.910Z,2.50
2022-10-04T11:43:34.757Z,1.70
2022-10-04T11:44:35.566Z,1.90
2022-10-04T11:45:36.439Z,1.90
2022-10-04T11:46:37.331Z,1.90
2022-10-04T11:47:38.126Z,2.20
2022-10-04T11:48:38.952Z,2.60
2022-10-04T11:49:39.772Z,1.50
2022-10-04T11:50:40.620Z,2.30
2022-10-04T11:51:41.430Z,1.10
2022-10-04T11:52:42.260Z,2.20
2022-10-04T11:53:43.090Z,1.50
2022-10-04T11:54:43.932Z,11.80
2022-10-04T11:55:44.780Z,5.70
2022-10-04T11:56:45.960Z,17.30
2022-10-04T11:57:46.457Z,16.30
2022-10-04T11:58:47.308Z,15.40
2022-10-04T11:59:48.119Z,20.70
2022-10-04T12:00:48.956Z,10.20
2022-10-04T12:01:49.786Z,18.60
2022-10-04T12:02:50.614Z,10.70
2022-10-04T12:03:51.627Z,10.30
2022-10-04T12:04:52.086Z,6.70
2022-10-04T12:05:52.882Z,6.70
2022-10-04T12:06:53.713Z,8.40
2022-10-04T12:07:54.547Z,8.40
2022-10-04T12:08:55.371Z,16.10
2022-10-04T12:10:00.666Z,17.60
2022-10-04T12:10:56.771Z,28.80
2022-10-04T12:11:57.598Z,12.60
2022-10-04T12:12:58.428Z,7.70
2022-10-04T12:13:59.266Z,20.60
2022-10-04T12:15:00.077Z,7.10
2022-10-04T12:16:01.054Z,9.80
2022-10-04T12:17:01.890Z,11.70
2022-10-04T12:18:02.680Z,7.50
2022-10-04T12:19:03.574Z,4.50
2022-10-04T12:20:07.598Z,4.70
2022-10-04T12:21:06.077Z,11.90
2022-10-04T12:22:05.960Z,10.20
2022-10-04T12:23:07.714Z,8.90
2022-10-04T12:24:07.536Z,18.70
2022-10-04T12:25:08.362Z,16.70
2022-10-04T12:26:09.193Z,6.90
2022-10-04T12:27:10.071Z,16.80
2022-10-04T12:28:10.964Z,6.70
2022-10-04T12:29:11.775Z,15.40
2022-10-04T12:30:12.585Z,13.80
2022-10-04T12:31:13.551Z,8.20
2022-10-04T12:32:14.326Z,8.90
2022-10-04T12:33:15.143Z,6.10
2022-10-04T12:34:15.975Z,9.50
2022-10-04T12:35:16.793Z,8.80
2022-10-04T12:36:17.625Z,5.80
2022-10-04T12:37:18.460Z,3.80
2022-10-04T12:38:19.284Z,3.10
2022-10-04T12:39:20.111Z,0.70
2022-10-04T12:40:20.950Z,0.90
2022-10-04T12:41:21.792Z,1.40
2022-10-04T12:42:22.813Z,1.20
2022-10-04T12:43:23.565Z,2.20
2022-10-04T12:44:24.476Z,1.50
2022-10-04T12:45:25.343Z,1.50
2022-10-04T12:46:26.145Z,2.50
2022-10-04T12:47:26.972Z,3.60
2022-10-04T12:48:27.834Z,1.00
2022-10-04T12:49:28.625Z,2.00
2022-10-04T12:50:29.524Z,0.80
2022-10-04T12:51:30.298Z,2.10
2022-10-04T12:52:31.120Z,4.30
2022-10-04T12:53:31.953Z,4.80
2022-10-04T12:54:32.788Z,4.60
2022-10-04T12:55:33.615Z,4.50
2022-10-04T12:56:34.448Z,6.80
2022-10-04T12:57:35.272Z,5.20
2022-10-04T12:58:36.797Z,4.80
2022-10-04T12:59:37.110Z,7.10
2022-10-04T13:00:37.981Z,5.60
2022-10-04T13:01:38.924Z,6.00
2022-10-04T13:02:39.756Z,6.10
2022-10-04T13:03:40.582Z,5.40
2022-10-04T13:04:41.416Z,6.30
2022-10-04T13:05:42.245Z,10.90
2022-10-04T13:06:43.800Z,5.00
2022-10-04T13:07:43.715Z,9.30
2022-10-04T13:08:44.546Z,5.40
2022-10-04T13:09:59.749Z,7.90
2022-10-04T13:10:47.089Z,9.90
2022-10-04T13:11:46.932Z,7.60
2022-10-04T13:12:47.827Z,6.70
2022-10-04T13:13:48.607Z,7.40
2022-10-04T13:14:49.460Z,8.50
2022-10-04T13:17:52.711Z,9.30
2022-10-04T13:18:52.592Z,6.80
2022-10-04T13:19:53.389Z,8.90
2022-10-04T13:20:54.209Z,5.50
2022-10-04T13:21:55.046Z,9.90
2022-10-04T13:22:57.580Z,2.30
2022-10-04T13:23:56.735Z,5.40
2022-10-04T13:24:57.629Z,4.90
2022-10-04T13:26:03.319Z,2.00
2022-10-04T13:27:00.137Z,2.30
2022-10-04T13:28:00.012Z,6.40